createdAt,value
2018-05-23T00:01:38.592Z,100111
2018-05-23T00:04:04.665Z,100119
2018-05-23T00:06:31.504Z,100117
2018-05-23T00:08:58.321Z,100120
2018-05-23T00:11:24.409Z,100122
2018-05-23T00:13:50.493Z,100117
2018-05-23T00:16:17.327Z,100120
2018-05-23T00:18:44.161Z,100114
2018-05-23T00:21:10.255Z,100112
2018-05-23T00:23:37.321Z,100111
2018-05-23T00:26:03.415Z,100116
2018-05-23T00:28:29.500Z,100117
2018-05-23T00:30:56.322Z,100120
2018-05-23T00:33:22.406Z,100123
2018-05-23T00:35:48.489Z,100121
2018-05-23T00:38:15.325Z,100131
2018-05-23T00:40:41.427Z,100128
2018-05-23T00:43:07.505Z,100128
2018-05-23T00:45:33.589Z,100126
2018-05-23T00:47:59.674Z,100125
2018-05-23T00:50:25.770Z,100120
2018-05-23T00:52:52.609Z,100134
2018-05-23T00:55:32.768Z,100124
2018-05-23T00:57:59.590Z,100128
2018-05-23T01:00:25.698Z,100123
2018-05-23T01:02:51.810Z,100118
2018-05-23T01:05:17.909Z,100130
2018-05-23T01:07:44.014Z,100121
2018-05-23T01:10:10.854Z,100138
2018-05-23T01:12:37.709Z,100132
2018-05-23T01:15:03.801Z,100137
2018-05-23T01:17:31.381Z,100143
2018-05-23T01:19:58.223Z,100140
2018-05-23T01:22:25.083Z,100146
2018-05-23T01:24:51.169Z,100138
2018-05-23T01:27:17.283Z,100134
2018-05-23T01:29:43.381Z,100127
2018-05-23T01:32:09.485Z,100138
2018-05-23T01:34:36.843Z,100135
2018-05-23T01:37:02.945Z,100142
2018-05-23T01:39:29.034Z,100140
2018-05-23T01:41:55.137Z,100158
2018-05-23T01:44:21.241Z,100147
2018-05-23T01:46:48.098Z,100158
2018-05-23T01:49:25.354Z,100147
2018-05-23T01:51:51.441Z,100145
2018-05-23T01:54:17.541Z,100138
2018-05-23T01:56:43.650Z,100141
2018-05-23T01:59:10.481Z,100142
2018-05-23T02:01:37.302Z,100141
2018-05-23T02:04:03.398Z,100148
2018-05-23T02:06:29.485Z,100146
2018-05-23T02:08:56.312Z,100145
2018-05-23T02:11:22.389Z,100147
2018-05-23T02:13:48.477Z,100152
2018-05-23T02:16:15.301Z,100155
2018-05-23T02:18:41.394Z,100157
2018-05-23T02:21:07.477Z,100156
2018-05-23T02:23:34.318Z,100165
2018-05-23T02:26:00.406Z,100163
2018-05-23T02:28:26.498Z,100162
2018-05-23T02:30:52.595Z,100180
2018-05-23T02:33:18.691Z,100174
2018-05-23T02:35:44.788Z,100169
2018-05-23T02:38:10.887Z,100181
2018-05-23T02:40:36.971Z,100173
2018-05-23T02:43:03.062Z,100165
2018-05-23T02:45:29.141Z,100168
2018-05-23T02:47:55.974Z,100162
2018-05-23T02:50:22.812Z,100170
2018-05-23T02:52:48.894Z,100176
2018-05-23T02:55:14.977Z,100172
2018-05-23T02:57:41.070Z,100181
2018-05-23T03:00:07.187Z,100176
2018-05-23T03:02:33.296Z,100176
2018-05-23T03:04:59.393Z,100182
2018-05-23T03:07:25.497Z,100188
2018-05-23T03:09:52.359Z,100195
2018-05-23T03:12:18.465Z,100190
2018-05-23T03:14:44.556Z,100197
2018-05-23T03:17:10.657Z,100200
2018-05-23T03:19:36.763Z,100198
2018-05-23T03:22:02.869Z,100200
2018-05-23T03:24:29.713Z,100203
2018-05-23T03:26:56.552Z,100205
2018-05-23T03:29:23.397Z,100211
2018-05-23T03:31:50.230Z,100217
2018-05-23T03:34:16.335Z,100220
2018-05-23T03:36:42.431Z,100221
2018-05-23T03:39:08.525Z,100220
2018-05-23T03:41:35.361Z,100205
2018-05-23T03:44:02.737Z,100201
2018-05-23T03:46:28.839Z,100200
2018-05-23T03:48:54.946Z,100212
2018-05-23T03:51:21.041Z,100218
2018-05-23T03:53:47.202Z,100214
2018-05-23T03:56:13.297Z,100216
2018-05-23T03:58:39.398Z,100209
2018-05-23T04:01:24.256Z,100202
2018-05-23T04:04:09.040Z,100207
2018-05-23T04:06:53.858Z,100203
2018-05-23T04:09:19.958Z,100203
2018-05-23T04:11:46.038Z,100211
2018-05-23T04:14:12.129Z,100225
2018-05-23T04:16:38.213Z,100221
2018-05-23T04:19:04.318Z,100234
2018-05-23T04:21:30.409Z,100230
2018-05-23T04:23:56.496Z,100228
2018-05-23T04:26:33.169Z,100230
2018-05-23T04:28:59.280Z,100234
2018-05-23T04:31:25.369Z,100235
2018-05-23T04:33:52.199Z,100243
2018-05-23T04:36:18.294Z,100244
2018-05-23T04:38:44.377Z,100249
2018-05-23T04:41:11.215Z,100260
2018-05-23T04:43:38.050Z,100268
2018-05-23T04:46:04.912Z,100275
2018-05-23T04:48:30.993Z,100275
2018-05-23T04:50:57.073Z,100270
2018-05-23T04:53:23.157Z,100275
2018-05-23T04:55:49.246Z,100268
2018-05-23T04:58:15.336Z,100274
2018-05-23T05:00:41.426Z,100268
2018-05-23T05:03:07.530Z,100275
2018-05-23T05:05:33.614Z,100278
2018-05-23T05:07:59.720Z,100282
2018-05-23T05:10:26.542Z,100288
2018-05-23T05:12:53.373Z,100296
2018-05-23T05:15:19.451Z,100291
2018-05-23T05:17:45.570Z,100290
2018-05-23T05:20:12.384Z,100318
2018-05-23T05:22:39.197Z,100310
2018-05-23T05:25:05.274Z,100304
2018-05-23T05:27:32.091Z,100301
2018-05-23T05:29:58.186Z,100309
2018-05-23T05:32:24.269Z,100311
2018-05-23T05:34:51.120Z,100322
2018-05-23T05:37:17.950Z,100331
2018-05-23T05:39:44.795Z,100334
2018-05-23T05:42:11.628Z,100343
2018-05-23T05:44:37.726Z,100353
2018-05-23T05:47:03.849Z,100357
2018-05-23T05:49:29.921Z,100359
2018-05-23T05:51:56.759Z,100345
2018-05-23T05:54:23.598Z,100352
2018-05-23T05:56:50.414Z,100344
2018-05-23T05:59:16.499Z,100353
2018-05-23T06:01:42.603Z,100344
2018-05-23T06:04:09.420Z,100349
2018-05-23T06:06:35.505Z,100345
2018-05-23T06:09:01.594Z,100355
2018-05-23T06:11:28.428Z,100355
2018-05-23T06:13:55.252Z,100362
2018-05-23T06:16:21.345Z,100359
2018-05-23T06:18:47.449Z,100362
2018-05-23T06:21:13.538Z,100363
2018-05-23T06:23:39.636Z,100359
2018-05-23T06:26:05.734Z,100345
2018-05-23T06:28:31.825Z,100335
2018-05-23T06:30:58.649Z,100335
2018-05-23T06:33:24.745Z,100345
2018-05-23T06:35:50.835Z,100330
2018-05-23T06:38:16.921Z,100314
2018-05-23T06:40:43.019Z,100298
2018-05-23T06:43:09.119Z,100301
2018-05-23T06:45:35.202Z,100310
2018-05-23T06:48:01.305Z,100318
2018-05-23T06:50:27.397Z,100325
2018-05-23T06:52:53.502Z,100339
2018-05-23T06:55:20.343Z,100339
2018-05-23T06:57:47.180Z,100321
2018-05-23T07:00:13.260Z,100322
2018-05-23T07:02:39.349Z,100347
2018-05-23T07:05:05.426Z,100322
2018-05-23T07:07:31.537Z,100325
2018-05-23T07:09:57.621Z,100324
2018-05-23T07:12:24.450Z,100351
2018-05-23T07:14:51.448Z,100353
2018-05-23T07:17:17.551Z,100361
2018-05-23T07:19:43.661Z,100377
2018-05-23T07:22:10.481Z,100375
2018-05-23T07:24:37.335Z,100382
2018-05-23T07:27:04.161Z,100390
2018-05-23T07:29:30.245Z,100344
2018-05-23T07:31:56.331Z,100381
2018-05-23T07:34:23.168Z,100401
2018-05-23T07:36:49.257Z,100408
2018-05-23T07:39:15.341Z,100413
2018-05-23T07:41:42.174Z,100411
2018-05-23T07:44:09.023Z,100411
2018-05-23T07:46:35.114Z,100413
2018-05-23T07:49:01.211Z,100421
2018-05-23T07:51:27.315Z,100420
2018-05-23T07:53:53.534Z,100420
2018-05-23T07:56:19.621Z,100427
2018-05-23T07:58:45.718Z,100433
2018-05-23T08:01:11.805Z,100434
2018-05-23T08:03:38.628Z,100432
2018-05-23T08:06:04.710Z,100438
2018-05-23T08:08:30.793Z,100439
2018-05-23T08:10:57.625Z,100451
2018-05-23T08:13:24.449Z,100446
2018-05-23T08:15:50.554Z,100451
2018-05-23T08:18:16.636Z,100441
2018-05-23T08:20:43.465Z,100443
2018-05-23T08:23:12.145Z,100439
2018-05-23T08:25:42.247Z,100437
2018-05-23T08:28:08.342Z,100439
2018-05-23T08:30:34.443Z,100443
2018-05-23T08:33:00.533Z,100453
2018-05-23T08:35:26.633Z,100447
2018-05-23T08:37:52.717Z,100449
2018-05-23T08:40:20.002Z,100450
2018-05-23T08:42:46.105Z,100455
2018-05-23T08:45:12.194Z,100462
2018-05-23T08:47:38.283Z,100457
2018-05-23T08:50:04.374Z,100453
2018-05-23T08:52:30.461Z,100460
2018-05-23T08:54:56.556Z,100460
2018-05-23T08:57:22.633Z,100457
2018-05-23T08:59:49.495Z,100453
2018-05-23T09:02:15.595Z,100456
2018-05-23T09:04:41.735Z,100450
2018-05-23T09:07:08.463Z,100469
2018-05-23T09:09:34.551Z,100455
2018-05-23T09:12:00.658Z,100466
2018-05-23T09:14:26.742Z,100476
2018-05-23T09:16:53.588Z,100474
2018-05-23T09:19:20.427Z,100477
2018-05-23T09:21:47.310Z,100479
2018-05-23T09:24:13.405Z,100480
2018-05-23T09:26:40.246Z,100467
2018-05-23T09:29:07.079Z,100460
2018-05-23T09:31:33.170Z,100475
2018-05-23T09:33:59.263Z,100459
2018-05-23T09:36:47.302Z,100460
2018-05-23T09:39:13.425Z,100445
2018-05-23T09:41:39.493Z,100459
2018-05-23T09:44:05.589Z,100456
2018-05-23T09:46:31.691Z,100453
2018-05-23T09:48:58.517Z,100466
2018-05-23T09:51:24.608Z,100467
2018-05-23T09:53:50.685Z,100478
2018-05-23T09:56:17.533Z,100476
2018-05-23T09:58:43.618Z,100478
2018-05-23T10:01:09.712Z,100481
2018-05-23T10:03:35.810Z,100488
2018-05-23T10:06:01.903Z,100485
2018-05-23T10:08:27.989Z,100467
2018-05-23T10:10:54.078Z,100468
2018-05-23T10:13:20.947Z,100471
2018-05-23T10:15:48.064Z,100475
2018-05-23T10:18:14.918Z,100488
2018-05-23T10:20:41.032Z,100476
2018-05-23T10:23:07.878Z,100478
2018-05-23T10:25:34.702Z,100478
2018-05-23T10:28:00.799Z,100467
2018-05-23T10:30:26.880Z,100471
2018-05-23T10:32:52.965Z,100475
2018-05-23T10:35:19.056Z,100482
2018-05-23T10:37:45.171Z,100490
2018-05-23T10:40:11.254Z,100485
2018-05-23T10:42:37.354Z,100487
2018-05-23T10:45:03.433Z,100494
2018-05-23T10:47:33.042Z,100488
2018-05-23T10:49:59.874Z,100490
2018-05-23T10:52:26.708Z,100486
2018-05-23T10:54:52.798Z,100481
2018-05-23T10:57:18.890Z,100487
2018-05-23T10:59:44.981Z,100479
2018-05-23T11:02:11.075Z,100484
2018-05-23T11:04:37.149Z,100484
2018-05-23T11:07:03.990Z,100487
2018-05-23T11:09:30.830Z,100489
2018-05-23T11:11:57.662Z,100493
2018-05-23T11:14:23.737Z,100508
2018-05-23T11:17:01.867Z,100511
2018-05-23T11:19:27.953Z,100512
2018-05-23T11:22:10.122Z,100514
2018-05-23T11:25:01.565Z,100518
2018-05-23T11:27:28.397Z,100522
2018-05-23T11:29:55.234Z,100525
2018-05-23T11:32:31.998Z,100526
2018-05-23T11:34:58.076Z,100525
2018-05-23T11:37:24.203Z,100529
2018-05-23T11:39:50.294Z,100521
2018-05-23T11:42:17.123Z,100532
2018-05-23T11:44:43.197Z,100540
2018-05-23T11:47:27.809Z,100541
2018-05-23T11:49:53.896Z,100545
2018-05-23T11:52:19.978Z,100545
2018-05-23T11:54:46.851Z,100544
2018-05-23T11:57:12.921Z,100545
2018-05-23T11:59:39.014Z,100548
2018-05-23T12:02:05.099Z,100546
2018-05-23T12:04:31.926Z,100541
2018-05-23T12:06:58.074Z,100553
2018-05-23T12:09:24.102Z,100543
2018-05-23T12:11:50.199Z,100542
2018-05-23T12:14:16.306Z,100538
2018-05-23T12:16:42.402Z,100532
2018-05-23T12:19:08.514Z,100538
2018-05-23T12:21:34.589Z,100533
2018-05-23T12:24:00.719Z,100533
2018-05-23T12:26:26.801Z,100527
2018-05-23T12:28:52.885Z,100519
2018-05-23T12:31:18.965Z,100525
2018-05-23T12:33:45.054Z,100520
2018-05-23T12:39:11.734Z,100529
2018-05-23T12:41:37.814Z,100530
2018-05-23T12:44:03.884Z,100522
2018-05-23T12:46:44.191Z,100522
2018-05-23T12:49:10.292Z,100519
2018-05-23T12:51:36.379Z,100518
2018-05-23T12:54:02.475Z,100509
2018-05-23T12:56:29.304Z,100507
2018-05-23T12:58:55.390Z,100505
2018-05-23T13:01:21.476Z,100515
2018-05-23T13:03:48.319Z,100505
2018-05-23T13:06:15.153Z,100505
2018-05-23T13:08:41.233Z,100508
2018-05-23T13:11:23.178Z,100498
2018-05-23T13:13:49.266Z,100506
2018-05-23T13:16:15.364Z,100506
2018-05-23T13:18:41.443Z,100502
2018-05-23T13:21:07.534Z,100504
2018-05-23T13:23:33.618Z,100499
2018-05-23T13:26:00.498Z,100493
2018-05-23T13:28:26.538Z,100501
2018-05-23T13:30:52.643Z,100497
2018-05-23T13:33:18.732Z,100505
2018-05-23T13:35:45.570Z,100502
2018-05-23T13:38:13.557Z,100499
2018-05-23T13:40:40.393Z,100509
2018-05-23T13:43:07.209Z,100499
2018-05-23T13:45:33.302Z,100488
2018-05-23T13:47:59.368Z,100496
2018-05-23T13:50:25.463Z,100492
2018-05-23T13:52:51.537Z,100487
2018-05-23T13:55:18.366Z,100476
2018-05-23T13:57:44.441Z,100475
2018-05-23T14:00:10.532Z,100466
2018-05-23T14:02:37.363Z,100462
2018-05-23T14:05:03.451Z,100466
2018-05-23T14:07:29.537Z,100468
2018-05-23T14:09:55.627Z,100466
2018-05-23T14:12:21.731Z,100467
2018-05-23T14:14:47.813Z,100467
2018-05-23T14:17:13.898Z,100461
2018-05-23T14:19:40.721Z,100469
2018-05-23T14:22:06.810Z,100468
2018-05-23T14:24:32.894Z,100467
2018-05-23T14:26:58.990Z,100466
2018-05-23T14:29:25.079Z,100469
2018-05-23T14:31:51.918Z,100462
2018-05-23T14:34:18.758Z,100462
2018-05-23T14:36:45.588Z,100462
2018-05-23T14:39:11.661Z,100466
2018-05-23T14:41:38.459Z,100459
2018-05-23T14:44:04.537Z,100457
2018-05-23T14:46:30.629Z,100447
2018-05-23T14:48:57.468Z,100459
2018-05-23T14:51:28.423Z,100448
2018-05-23T14:54:09.853Z,100449
2018-05-23T14:56:35.949Z,100450
2018-05-23T14:59:02.042Z,100448
2018-05-23T15:01:28.898Z,100453
2018-05-23T15:03:54.990Z,100447
2018-05-23T15:06:21.089Z,100438
2018-05-23T15:08:47.185Z,100443
2018-05-23T15:11:13.315Z,100437
2018-05-23T15:13:39.413Z,100438
2018-05-23T15:16:06.245Z,100441
2018-05-23T15:18:33.163Z,100432
2018-05-23T15:20:59.266Z,100428
2018-05-23T15:23:25.360Z,100435
2018-05-23T15:25:52.937Z,100441
2018-05-23T15:28:19.032Z,100432
2018-05-23T15:30:45.878Z,100433
2018-05-23T15:33:12.712Z,100430
2018-05-23T15:35:38.810Z,100433
2018-05-23T15:38:04.921Z,100430
2018-05-23T15:40:31.021Z,100430
2018-05-23T15:42:57.113Z,100428
2018-05-23T15:45:23.205Z,100434
2018-05-23T15:47:49.293Z,100428
2018-05-23T15:50:15.385Z,100424
2018-05-23T15:52:41.497Z,100420
2018-05-23T15:55:07.593Z,100427
2018-05-23T15:57:34.590Z,100424
2018-05-23T16:00:01.412Z,100424
2018-05-23T16:02:27.503Z,100419
2018-05-23T16:04:53.607Z,100417
2018-05-23T16:07:19.711Z,100421
2018-05-23T16:09:46.530Z,100424
2018-05-23T16:12:12.608Z,100425
2018-05-23T16:14:45.399Z,100435
2018-05-23T16:17:12.185Z,100423
2018-05-23T16:20:07.988Z,100430
2018-05-23T16:22:34.076Z,100445
2018-05-23T16:25:00.160Z,100455
2018-05-23T16:27:26.244Z,100450
2018-05-23T16:29:59.652Z,100451
2018-05-23T16:32:32.029Z,100455
2018-05-23T16:35:12.527Z,100447
2018-05-23T16:37:38.618Z,100448
2018-05-23T16:40:28.881Z,100444
2018-05-23T16:43:02.515Z,100455
2018-05-23T16:45:32.051Z,100451
2018-05-23T16:47:59.620Z,100460
2018-05-23T16:50:26.462Z,100452
2018-05-23T16:52:52.562Z,100450
2018-05-23T16:58:20.373Z,100448
2018-05-23T17:00:46.458Z,100445
2018-05-23T17:03:22.666Z,100456
2018-05-23T17:05:49.481Z,100461
2018-05-23T17:08:15.600Z,100457
2018-05-23T17:10:41.689Z,100465
2018-05-23T17:13:35.707Z,100463
2018-05-23T17:16:01.785Z,100468
2018-05-23T17:18:48.890Z,100467
2018-05-23T17:21:28.296Z,100476
2018-05-23T17:23:54.391Z,100472
2018-05-23T17:26:20.476Z,100476
2018-05-23T17:28:47.343Z,100469
2018-05-23T17:31:13.430Z,100475
2018-05-23T17:33:40.259Z,100476
2018-05-23T17:36:06.351Z,100480
2018-05-23T17:38:33.096Z,100483
2018-05-23T17:40:59.165Z,100478
2018-05-23T17:43:25.245Z,100479
2018-05-23T17:45:51.347Z,100481
2018-05-23T17:48:18.169Z,100480
2018-05-23T17:50:45.006Z,100481
2018-05-23T17:53:11.080Z,100482
2018-05-23T17:55:37.169Z,100479
2018-05-23T17:58:03.237Z,100485
2018-05-23T18:00:29.345Z,100485
2018-05-23T18:02:55.438Z,100497
2018-05-23T18:05:21.535Z,100494
2018-05-23T18:07:47.634Z,100499
2018-05-23T18:10:13.737Z,100507
2018-05-23T18:12:40.387Z,100512
2018-05-23T18:15:06.491Z,100516
2018-05-23T18:17:33.334Z,100510
2018-05-23T18:20:00.190Z,100515
2018-05-23T18:22:26.285Z,100514
2018-05-23T18:24:52.383Z,100519
2018-05-23T18:27:19.476Z,100521
2018-05-23T18:29:46.405Z,100523
2018-05-23T18:32:12.431Z,100535
2018-05-23T18:34:38.520Z,100532
2018-05-23T18:37:04.620Z,100532
2018-05-23T18:39:30.718Z,100545
2018-05-23T18:41:57.566Z,100540
2018-05-23T18:44:24.400Z,100535
2018-05-23T18:46:51.321Z,100535
2018-05-23T18:49:18.095Z,100543
2018-05-23T18:51:44.938Z,100545
2018-05-23T18:54:11.777Z,100547
2018-05-23T18:56:38.637Z,100540
2018-05-23T18:59:08.867Z,100545
2018-05-23T19:01:34.969Z,100538
2018-05-23T19:04:01.790Z,100541
2018-05-23T19:06:27.869Z,100542
2018-05-23T19:08:53.945Z,100543
2018-05-23T19:11:20.044Z,100540
2018-05-23T19:13:46.188Z,100545
2018-05-23T19:16:12.262Z,100544
2018-05-23T19:18:38.362Z,100547
2018-05-23T19:21:05.198Z,100549
2018-05-23T19:23:31.289Z,100555
2018-05-23T19:25:57.386Z,100554
2018-05-23T19:28:23.479Z,100556
2018-05-23T19:30:50.309Z,100569
2018-05-23T19:33:16.397Z,100557
2018-05-23T19:35:42.494Z,100554
2018-05-23T19:38:08.598Z,100557
2018-05-23T19:40:34.686Z,100559
2018-05-23T19:43:00.777Z,100571
2018-05-23T19:45:26.867Z,100568
2018-05-23T19:47:52.966Z,100570
2018-05-23T19:50:19.044Z,100572
2018-05-23T19:52:45.919Z,100566
2018-05-23T19:55:12.712Z,100575
2018-05-23T19:57:39.557Z,100577
2018-05-23T20:00:05.645Z,100574
2018-05-23T20:02:31.749Z,100574
2018-05-23T20:04:57.837Z,100569
2018-05-23T20:07:24.686Z,100573
2018-05-23T20:09:51.606Z,100567
2018-05-23T20:12:17.644Z,100573
2018-05-23T20:14:43.741Z,100565
2018-05-23T20:17:09.840Z,100566
2018-05-23T20:19:35.945Z,100565
2018-05-23T20:22:02.052Z,100568
2018-05-23T20:24:28.894Z,100570
2018-05-23T20:26:55.729Z,100562
2018-05-23T20:29:21.905Z,100562
2018-05-23T20:31:47.952Z,100570
2018-05-23T20:34:14.066Z,100568
2018-05-23T20:36:40.173Z,100557
2018-05-23T20:39:06.278Z,100563
2018-05-23T20:41:33.132Z,100548
2018-05-23T20:43:59.247Z,100553
2018-05-23T20:46:26.109Z,100557
2018-05-23T20:48:52.209Z,100552
2018-05-23T20:51:19.045Z,100550
2018-05-23T20:53:45.889Z,100549
2018-05-23T20:56:12.734Z,100551
2018-05-23T20:58:39.676Z,100551
2018-05-23T21:01:06.441Z,100551
2018-05-23T21:03:32.545Z,100555
2018-05-23T21:05:59.364Z,100559
2018-05-23T21:08:25.481Z,100561
2018-05-23T21:10:51.582Z,100562
2018-05-23T21:13:17.681Z,100576
2018-05-23T21:15:44.519Z,100569
2018-05-23T21:18:11.365Z,100576
2018-05-23T21:20:38.194Z,100571
2018-05-23T21:23:05.180Z,100574
2018-05-23T21:25:31.281Z,100577
2018-05-23T21:27:58.125Z,100574
2018-05-23T21:30:24.964Z,100569
2018-05-23T21:32:52.764Z,100571
2018-05-23T21:35:18.868Z,100563
2018-05-23T21:37:44.964Z,100571
2018-05-23T21:40:11.065Z,100569
2018-05-23T21:42:37.161Z,100563
2018-05-23T21:45:04.210Z,100577
2018-05-23T21:47:30.305Z,100577
2018-05-23T21:49:57.199Z,100580
2018-05-23T21:52:23.294Z,100589
2018-05-23T21:54:49.402Z,100588
2018-05-23T21:57:15.500Z,100592
2018-05-23T21:59:41.597Z,100590
2018-05-23T22:02:07.710Z,100581
2018-05-23T22:04:33.821Z,100602
2018-05-23T22:06:59.926Z,100604
2018-05-23T22:09:26.030Z,100610
2018-05-23T22:11:52.117Z,100602
2018-05-23T22:14:18.225Z,100595
2018-05-23T22:16:44.331Z,100605
2018-05-23T22:19:11.190Z,100612
2018-05-23T22:21:38.313Z,100611
2018-05-23T22:24:05.187Z,100610
2018-05-23T22:26:31.291Z,100612
2018-05-23T22:28:58.133Z,100625
2018-05-23T22:31:24.977Z,100620
2018-05-23T22:33:51.828Z,100623
2018-05-23T22:36:18.675Z,100621
2018-05-23T22:38:45.501Z,100614
2018-05-23T22:41:11.590Z,100620
2018-05-23T22:43:38.429Z,100618
2018-05-23T22:46:04.542Z,100623
2018-05-23T22:48:30.641Z,100619
2018-05-23T22:50:57.485Z,100619
2018-05-23T22:53:23.585Z,100617
2018-05-23T22:55:49.681Z,100619
2018-05-23T22:58:15.777Z,100622
2018-05-23T23:00:41.891Z,100624
2018-05-23T23:03:07.977Z,100621
2018-05-23T23:05:34.077Z,100627
2018-05-23T23:08:00.169Z,100622
2018-05-23T23:10:26.287Z,100626
2018-05-23T23:12:53.116Z,100623
2018-05-23T23:15:19.959Z,100620
2018-05-23T23:17:46.789Z,100627
2018-05-23T23:20:12.902Z,100627
2018-05-23T23:22:39.006Z,100622
2018-05-23T23:25:05.102Z,100628
2018-05-23T23:27:31.226Z,100622
2018-05-23T23:29:57.390Z,100623
2018-05-23T23:32:24.251Z,100629
2018-05-23T23:34:50.354Z,100627
2018-05-23T23:37:16.463Z,100626
2018-05-23T23:39:42.570Z,100629
2018-05-23T23:42:08.680Z,100628
2018-05-23T23:44:35.523Z,100633
2018-05-23T23:47:02.379Z,100625
2018-05-23T23:49:29.213Z,100629
2018-05-23T23:51:56.060Z,100630
2018-05-23T23:54:22.899Z,100626
2018-05-23T23:56:49.750Z,100634
2018-05-23T23:59:16.594Z,100630
